createdAt,value
2022-10-11T00:00:27.920Z,1015.12
2022-10-11T00:01:35.722Z,1015.11
2022-10-11T00:02:28.584Z,1015.16
2022-10-11T00:03:27.848Z,1015.17
2022-10-11T00:04:27.827Z,1015.18
2022-10-11T00:05:27.826Z,1015.22
2022-10-11T00:06:27.810Z,1015.24
2022-10-11T00:07:27.800Z,1015.29
2022-10-11T00:08:27.797Z,1015.29
2022-10-11T00:09:27.784Z,1015.31
2022-10-11T00:10:27.792Z,1015.31
2022-10-11T00:11:27.761Z,1015.35
2022-10-11T00:12:27.744Z,1015.36
2022-10-11T00:13:27.743Z,1015.39
2022-10-11T00:14:27.739Z,1015.42
2022-10-11T00:15:27.725Z,1015.42
2022-10-11T00:16:27.697Z,1015.45
2022-10-11T00:17:27.697Z,1015.48
2022-10-11T00:18:27.681Z,1015.49
2022-10-11T00:19:27.679Z,1015.50
2022-10-11T00:20:27.678Z,1015.51
2022-10-11T00:21:27.652Z,1015.54
2022-10-11T00:22:27.642Z,1015.56
2022-10-11T00:23:27.641Z,1015.58
2022-10-11T00:24:27.659Z,1015.57
2022-10-11T00:25:27.619Z,1015.58
2022-10-11T00:26:27.661Z,1015.62
2022-10-11T00:27:27.600Z,1015.66
2022-10-11T00:28:27.620Z,1015.65
2022-10-11T00:29:27.670Z,1015.64
2022-10-11T00:30:27.563Z,1015.68
2022-10-11T00:31:30.864Z,1015.70
2022-10-11T00:32:27.610Z,1015.72
2022-10-11T00:33:27.532Z,1015.73
2022-10-11T00:34:27.537Z,1015.73
2022-10-11T00:35:27.502Z,1015.75
2022-10-11T00:36:27.603Z,1015.77
2022-10-11T00:37:27.606Z,1015.77
2022-10-11T00:38:27.470Z,1015.79
2022-10-11T00:39:27.591Z,1015.79
2022-10-11T00:40:27.615Z,1015.83
2022-10-11T00:41:27.435Z,1015.85
2022-10-11T00:42:27.487Z,1015.85
2022-10-11T00:43:27.496Z,1015.86
2022-10-11T00:44:27.505Z,1015.87
2022-10-11T00:45:27.399Z,1015.86
2022-10-11T00:46:27.375Z,1015.87
2022-10-11T00:47:27.537Z,1015.87
2022-10-11T00:48:27.362Z,1015.88
2022-10-11T00:49:27.601Z,1015.91
2022-10-11T00:50:27.599Z,1015.92
2022-10-11T00:51:27.339Z,1015.95
2022-10-11T00:52:27.318Z,1015.96
2022-10-11T00:53:27.317Z,1016.00
2022-10-11T00:54:27.328Z,1015.97
2022-10-11T00:55:27.377Z,1015.96
2022-10-11T00:56:27.285Z,1015.99
2022-10-11T00:57:27.286Z,1016.00
2022-10-11T00:58:27.256Z,1016.02
2022-10-11T00:59:27.588Z,1016.01
2022-10-11T01:00:27.281Z,1016.02
2022-10-11T01:01:27.299Z,1016.01
2022-10-11T01:02:27.221Z,1016.03
2022-10-11T01:03:27.202Z,1016.04
2022-10-11T01:04:27.255Z,1016.04
2022-10-11T01:05:29.969Z,1016.07
2022-10-11T01:06:27.209Z,1016.10
2022-10-11T01:07:27.163Z,1016.11
2022-10-11T01:08:27.146Z,1016.14
2022-10-11T01:09:27.188Z,1016.15
2022-10-11T01:10:27.126Z,1016.16
2022-10-11T01:11:27.122Z,1016.18
2022-10-11T01:12:27.117Z,1016.20
2022-10-11T01:13:27.105Z,1016.20
2022-10-11T01:14:27.113Z,1016.19
2022-10-11T01:15:27.085Z,1016.20
2022-10-11T01:16:27.068Z,1016.20
2022-10-11T01:17:27.080Z,1016.21
2022-10-11T01:18:27.042Z,1016.21
2022-10-11T01:19:27.054Z,1016.22
2022-10-11T01:20:27.087Z,1016.24
2022-10-11T01:21:27.063Z,1016.25
2022-10-11T01:22:27.000Z,1016.28
2022-10-11T01:23:26.994Z,1016.29
2022-10-11T01:24:27.098Z,1016.30
2022-10-11T01:25:26.976Z,1016.32
2022-10-11T01:26:26.962Z,1016.33
2022-10-11T01:27:26.950Z,1016.34
2022-10-11T01:28:27.104Z,1016.35
2022-10-11T01:29:26.940Z,1016.39
2022-10-11T01:30:26.964Z,1016.37
2022-10-11T01:31:26.917Z,1016.38
2022-10-11T01:32:26.893Z,1016.41
2022-10-11T01:33:26.939Z,1016.41
2022-10-11T01:34:26.875Z,1016.46
2022-10-11T01:35:26.883Z,1016.43
2022-10-11T01:36:26.856Z,1016.47
2022-10-11T01:37:26.853Z,1016.45
2022-10-11T01:38:26.840Z,1016.50
2022-10-11T01:39:26.823Z,1016.49
2022-10-11T01:40:26.829Z,1016.50
2022-10-11T01:41:26.897Z,1016.51
2022-10-11T01:42:26.798Z,1016.49
2022-10-11T01:43:26.812Z,1016.52
2022-10-11T01:44:27.006Z,1016.51
2022-10-11T01:45:26.779Z,1016.53
2022-10-11T01:46:26.758Z,1016.54
2022-10-11T01:47:26.748Z,1016.54
2022-10-11T01:48:26.730Z,1016.56
2022-10-11T01:49:26.765Z,1016.54
2022-10-11T01:50:26.704Z,1016.57
2022-10-11T01:51:26.760Z,1016.56
2022-10-11T01:52:26.684Z,1016.56
2022-10-11T01:53:26.677Z,1016.56
2022-10-11T01:54:39.278Z,1016.57
2022-10-11T01:55:26.659Z,1016.57
2022-10-11T01:56:26.640Z,1016.57
2022-10-11T01:57:26.635Z,1016.58
2022-10-11T01:58:26.637Z,1016.59
2022-10-11T01:59:26.611Z,1016.60
2022-10-11T02:00:26.614Z,1016.58
2022-10-11T02:01:26.613Z,1016.60
2022-10-11T02:02:26.580Z,1016.60
2022-10-11T02:03:26.602Z,1016.63
2022-10-11T02:04:26.553Z,1016.63
2022-10-11T02:05:26.558Z,1016.66
2022-10-11T02:06:26.533Z,1016.67
2022-10-11T02:07:26.529Z,1016.66
2022-10-11T02:08:26.514Z,1016.69
2022-10-11T02:09:26.524Z,1016.70
2022-10-11T02:10:26.501Z,1016.72
2022-10-11T02:11:26.488Z,1016.72
2022-10-11T02:12:26.471Z,1016.73
2022-10-11T02:13:26.464Z,1016.76
2022-10-11T02:14:26.471Z,1016.75
2022-10-11T02:15:26.450Z,1016.75
2022-10-11T02:16:26.441Z,1016.76
2022-10-11T02:17:26.429Z,1016.77
2022-10-11T02:18:26.408Z,1016.78
2022-10-11T02:19:26.438Z,1016.79
2022-10-11T02:20:26.395Z,1016.80
2022-10-11T02:21:26.392Z,1016.82
2022-10-11T02:22:26.380Z,1016.83
2022-10-11T02:23:26.358Z,1016.81
2022-10-11T02:24:26.364Z,1016.84
2022-10-11T02:25:26.344Z,1016.84
2022-10-11T02:26:26.329Z,1016.86
2022-10-11T02:27:26.316Z,1016.86
2022-10-11T02:28:26.384Z,1016.85
2022-10-11T02:29:26.333Z,1016.85
2022-10-11T02:30:26.282Z,1016.85
2022-10-11T02:31:26.285Z,1016.87
2022-10-11T02:32:26.273Z,1016.86
2022-10-11T02:33:26.258Z,1016.86
2022-10-11T02:34:26.262Z,1016.87
2022-10-11T02:35:26.238Z,1016.87
2022-10-11T02:36:26.217Z,1016.89
2022-10-11T02:37:26.209Z,1016.89
2022-10-11T02:38:26.200Z,1016.89
2022-10-11T02:39:26.203Z,1016.92
2022-10-11T02:40:26.181Z,1016.93
2022-10-11T02:41:26.163Z,1016.93
2022-10-11T02:42:26.163Z,1016.95
2022-10-11T02:43:26.141Z,1016.94
2022-10-11T02:44:26.156Z,1016.95
2022-10-11T02:45:26.133Z,1016.97
2022-10-11T02:46:26.122Z,1016.97
2022-10-11T02:47:26.101Z,1016.96
2022-10-11T02:48:26.100Z,1016.96
2022-10-11T02:49:26.135Z,1016.95
2022-10-11T02:50:26.080Z,1016.96
2022-10-11T02:51:26.073Z,1016.96
2022-10-11T02:52:26.062Z,1016.97
2022-10-11T02:53:26.039Z,1016.96
2022-10-11T02:54:26.064Z,1016.98
2022-10-11T02:55:26.027Z,1016.98
2022-10-11T02:56:26.025Z,1017.01
2022-10-11T02:57:26.002Z,1017.00
2022-10-11T02:58:25.997Z,1017.04
2022-10-11T02:59:26.008Z,1017.06
2022-10-11T03:00:25.967Z,1017.08
2022-10-11T03:01:26.025Z,1017.09
2022-10-11T03:02:25.951Z,1017.10
2022-10-11T03:03:25.956Z,1017.12
2022-10-11T03:04:25.942Z,1017.12
2022-10-11T03:05:25.915Z,1017.12
2022-10-11T03:06:25.905Z,1017.13
2022-10-11T03:07:25.909Z,1017.16
2022-10-11T03:08:25.923Z,1017.16
2022-10-11T03:09:25.927Z,1017.18
2022-10-11T03:10:25.901Z,1017.19
2022-10-11T03:11:25.911Z,1017.22
2022-10-11T03:12:25.839Z,1017.24
2022-10-11T03:13:25.877Z,1017.27
2022-10-11T03:14:25.832Z,1017.29
2022-10-11T03:15:25.837Z,1017.31
2022-10-11T03:16:25.801Z,1017.32
2022-10-11T03:17:38.205Z,1017.33
2022-10-11T03:18:25.785Z,1017.36
2022-10-11T03:19:25.817Z,1017.36
2022-10-11T03:20:25.767Z,1017.36
2022-10-11T03:21:25.829Z,1017.36
2022-10-11T03:22:25.781Z,1017.38
2022-10-11T03:23:25.735Z,1017.41
2022-10-11T03:24:25.744Z,1017.42
2022-10-11T03:25:25.712Z,1017.45
2022-10-11T03:26:25.691Z,1017.47
2022-10-11T03:27:25.680Z,1017.47
2022-10-11T03:28:25.772Z,1017.51
2022-10-11T03:29:25.682Z,1017.52
2022-10-11T03:30:25.655Z,1017.52
2022-10-11T03:31:25.665Z,1017.55
2022-10-11T03:32:25.634Z,1017.57
2022-10-11T03:33:25.623Z,1017.59
2022-10-11T03:34:25.622Z,1017.60
2022-10-11T03:35:25.597Z,1017.61
2022-10-11T03:36:25.632Z,1017.65
2022-10-11T03:37:25.574Z,1017.66
2022-10-11T03:38:25.568Z,1017.65
2022-10-11T03:39:25.594Z,1017.66
2022-10-11T03:40:25.550Z,1017.65
2022-10-11T03:41:25.531Z,1017.64
2022-10-11T03:42:25.606Z,1017.66
2022-10-11T03:43:25.567Z,1017.65
2022-10-11T03:44:25.541Z,1017.67
2022-10-11T03:45:25.540Z,1017.66
2022-10-11T03:46:25.598Z,1017.69
2022-10-11T03:47:25.473Z,1017.69
2022-10-11T03:48:25.620Z,1017.69
2022-10-11T03:49:25.448Z,1017.73
2022-10-11T03:50:25.444Z,1017.74
2022-10-11T03:51:25.423Z,1017.75
2022-10-11T03:52:25.600Z,1017.77
2022-10-11T03:53:25.600Z,1017.77
2022-10-11T03:54:25.403Z,1017.78
2022-10-11T03:55:25.399Z,1017.79
2022-10-11T03:56:25.423Z,1017.78
2022-10-11T03:57:25.652Z,1017.78
2022-10-11T03:58:25.585Z,1017.78
2022-10-11T03:59:25.588Z,1017.80
2022-10-11T04:00:25.594Z,1017.83
2022-10-11T04:01:25.613Z,1017.85
2022-10-11T04:02:25.315Z,1017.87
2022-10-11T04:03:25.435Z,1017.86
2022-10-11T04:04:25.291Z,1017.86
2022-10-11T04:05:25.346Z,1017.88
2022-10-11T04:06:25.276Z,1017.89
2022-10-11T04:07:25.257Z,1017.91
2022-10-11T04:08:25.365Z,1017.92
2022-10-11T04:09:25.234Z,1017.94
2022-10-11T04:10:25.230Z,1017.94
2022-10-11T04:11:25.212Z,1017.97
2022-10-11T04:12:25.212Z,1017.99
2022-10-11T04:13:25.207Z,1018.01
2022-10-11T04:14:25.187Z,1018.04
2022-10-11T04:15:25.195Z,1018.06
2022-10-11T04:16:25.166Z,1018.08
2022-10-11T04:17:25.152Z,1018.07
2022-10-11T04:18:25.163Z,1018.08
2022-10-11T04:19:25.126Z,1018.09
2022-10-11T04:20:25.122Z,1018.10
2022-10-11T04:21:25.115Z,1018.09
2022-10-11T04:22:25.101Z,1018.08
2022-10-11T04:23:25.109Z,1018.09
2022-10-11T04:24:25.089Z,1018.09
2022-10-11T04:25:25.076Z,1018.09
2022-10-11T04:26:25.073Z,1018.09
2022-10-11T04:27:25.043Z,1018.09
2022-10-11T04:28:25.129Z,1018.12
2022-10-11T04:29:27.704Z,1018.13
2022-10-11T04:30:25.058Z,1018.12
2022-10-11T04:31:25.004Z,1018.12
2022-10-11T04:32:24.999Z,1018.16
2022-10-11T04:33:25.056Z,1018.18
2022-10-11T04:34:25.017Z,1018.19
2022-10-11T04:35:24.990Z,1018.19
2022-10-11T04:36:24.953Z,1018.19
2022-10-11T04:37:25.024Z,1018.20
2022-10-11T04:38:24.944Z,1018.25
2022-10-11T04:39:24.934Z,1018.26
2022-10-11T04:40:24.999Z,1018.26
2022-10-11T04:41:24.907Z,1018.24
2022-10-11T04:42:24.991Z,1018.28
2022-10-11T04:43:24.876Z,1018.28
2022-10-11T04:44:24.887Z,1018.27
2022-10-11T04:45:24.851Z,1018.28
2022-10-11T04:46:24.883Z,1018.28
2022-10-11T04:47:24.833Z,1018.27
2022-10-11T04:48:24.837Z,1018.27
2022-10-11T04:49:24.857Z,1018.26
2022-10-11T04:50:24.806Z,1018.28
2022-10-11T04:51:24.796Z,1018.29
2022-10-11T04:52:26.073Z,1018.31
2022-10-11T04:53:24.785Z,1018.31
2022-10-11T04:54:24.818Z,1018.33
2022-10-11T04:55:24.805Z,1018.32
2022-10-11T04:56:24.731Z,1018.33
2022-10-11T04:57:24.708Z,1018.34
2022-10-11T04:58:24.732Z,1018.35
2022-10-11T04:59:24.747Z,1018.37
2022-10-11T05:00:24.657Z,1018.38
2022-10-11T05:01:24.646Z,1018.40
2022-10-11T05:02:24.720Z,1018.43
2022-10-11T05:03:24.635Z,1018.44
2022-10-11T05:04:24.627Z,1018.45
2022-10-11T05:05:24.590Z,1018.49
2022-10-11T05:06:24.582Z,1018.49
2022-10-11T05:07:24.575Z,1018.51
2022-10-11T05:08:24.586Z,1018.53
2022-10-11T05:09:24.547Z,1018.56
2022-10-11T05:10:24.541Z,1018.54
2022-10-11T05:11:24.529Z,1018.55
2022-10-11T05:12:24.520Z,1018.56
2022-10-11T05:13:24.520Z,1018.58
2022-10-11T05:14:24.506Z,1018.59
2022-10-11T05:15:24.481Z,1018.59
2022-10-11T05:16:24.477Z,1018.62
2022-10-11T05:17:24.484Z,1018.62
2022-10-11T05:18:24.504Z,1018.63
2022-10-11T05:19:24.448Z,1018.64
2022-10-11T05:20:24.442Z,1018.65
2022-10-11T05:21:24.422Z,1018.62
2022-10-11T05:22:24.419Z,1018.64
2022-10-11T05:23:24.485Z,1018.67
2022-10-11T05:24:24.400Z,1018.68
2022-10-11T05:25:24.378Z,1018.69
2022-10-11T05:26:24.380Z,1018.70
2022-10-11T05:27:24.364Z,1018.72
2022-10-11T05:28:24.586Z,1018.75
2022-10-11T05:29:24.343Z,1018.76
2022-10-11T05:30:24.328Z,1018.77
2022-10-11T05:31:24.314Z,1018.80
2022-10-11T05:32:27.720Z,1018.84
2022-10-11T05:33:24.332Z,1018.85
2022-10-11T05:34:24.289Z,1018.89
2022-10-11T05:35:24.274Z,1018.89
2022-10-11T05:36:24.349Z,1018.91
2022-10-11T05:37:24.261Z,1018.93
2022-10-11T05:38:24.263Z,1018.94
2022-10-11T05:39:24.240Z,1018.95
2022-10-11T05:40:24.224Z,1018.95
2022-10-11T05:41:24.208Z,1018.98
2022-10-11T05:42:24.207Z,1018.96
2022-10-11T05:43:24.213Z,1018.98
2022-10-11T05:44:24.181Z,1019.00
2022-10-11T05:45:24.171Z,1019.00
2022-10-11T05:46:24.165Z,1019.01
2022-10-11T05:47:24.150Z,1019.01
2022-10-11T05:48:24.176Z,1019.01
2022-10-11T05:49:24.122Z,1018.99
2022-10-11T05:50:24.628Z,1019.00
2022-10-11T05:51:24.116Z,1019.01
2022-10-11T05:52:24.100Z,1019.00
2022-10-11T05:53:24.100Z,1019.00
2022-10-11T05:54:24.085Z,1019.01
2022-10-11T05:55:24.073Z,1019.01
2022-10-11T05:56:24.054Z,1019.02
2022-10-11T05:57:24.055Z,1019.03
2022-10-11T05:58:24.058Z,1019.03
2022-10-11T05:59:24.019Z,1019.04
2022-10-11T06:00:24.053Z,1019.06
2022-10-11T06:01:24.061Z,1019.08
2022-10-11T06:02:23.994Z,1019.10
2022-10-11T06:03:23.992Z,1019.14
2022-10-11T06:04:23.981Z,1019.18
2022-10-11T06:05:23.969Z,1019.20
2022-10-11T06:06:23.952Z,1019.21
2022-10-11T06:07:23.942Z,1019.23
2022-10-11T06:08:23.942Z,1019.26
2022-10-11T06:09:23.924Z,1019.28
2022-10-11T06:10:23.909Z,1019.28
2022-10-11T06:11:23.891Z,1019.28
2022-10-11T06:12:23.929Z,1019.31
2022-10-11T06:13:23.901Z,1019.29
2022-10-11T06:14:23.866Z,1019.29
2022-10-11T06:15:23.856Z,1019.29
2022-10-11T06:16:23.877Z,1019.31
2022-10-11T06:17:23.843Z,1019.34
2022-10-11T06:18:23.834Z,1019.33
2022-10-11T06:19:23.805Z,1019.35
2022-10-11T06:20:23.804Z,1019.36
2022-10-11T06:21:23.798Z,1019.38
2022-10-11T06:22:23.783Z,1019.39
2022-10-11T06:23:23.780Z,1019.39
2022-10-11T06:24:23.768Z,1019.39
2022-10-11T06:25:23.744Z,1019.38
2022-10-11T06:26:23.742Z,1019.42
2022-10-11T06:27:23.728Z,1019.45
2022-10-11T06:28:23.815Z,1019.47
2022-10-11T06:29:23.727Z,1019.49
2022-10-11T06:30:23.706Z,1019.49
2022-10-11T06:31:23.684Z,1019.47
2022-10-11T06:32:23.675Z,1019.50
2022-10-11T06:33:23.672Z,1019.49
2022-10-11T06:34:23.667Z,1019.53
2022-10-11T06:35:23.645Z,1019.55
2022-10-11T06:36:23.635Z,1019.56
2022-10-11T06:37:23.617Z,1019.58
2022-10-11T06:38:23.611Z,1019.58
2022-10-11T06:39:23.610Z,1019.59
2022-10-11T06:40:23.599Z,1019.60
2022-10-11T06:41:23.583Z,1019.61
2022-10-11T06:42:23.575Z,1019.62
2022-10-11T06:43:23.567Z,1019.64
2022-10-11T06:44:23.548Z,1019.65
2022-10-11T06:45:23.539Z,1019.66
2022-10-11T06:46:23.533Z,1019.68
2022-10-11T06:47:23.518Z,1019.65
2022-10-11T06:48:23.523Z,1019.68
2022-10-11T06:49:23.787Z,1019.70
2022-10-11T06:50:47.252Z,1019.71
2022-10-11T06:51:23.483Z,1019.71
2022-10-11T06:52:23.477Z,1019.73
2022-10-11T06:53:23.466Z,1019.75
2022-10-11T06:54:23.438Z,1019.78
2022-10-11T06:55:23.448Z,1019.80
2022-10-11T06:56:23.418Z,1019.82
2022-10-11T06:57:23.425Z,1019.85
2022-10-11T06:58:23.416Z,1019.86
2022-10-11T06:59:23.388Z,1019.89
2022-10-11T07:00:23.375Z,1019.90
2022-10-11T07:01:23.417Z,1019.92
2022-10-11T07:02:23.362Z,1019.92
2022-10-11T07:03:23.374Z,1019.93
2022-10-11T07:04:23.380Z,1019.93
2022-10-11T07:05:23.341Z,1019.94
2022-10-11T07:06:23.314Z,1019.93
2022-10-11T07:07:23.303Z,1019.94
2022-10-11T07:08:23.296Z,1019.95
2022-10-11T07:09:23.308Z,1019.95
2022-10-11T07:10:23.269Z,1019.97
2022-10-11T07:11:23.267Z,1019.99
2022-10-11T07:12:23.246Z,1019.99
2022-10-11T07:13:23.266Z,1020.02
2022-10-11T07:14:23.225Z,1020.04
2022-10-11T07:15:23.226Z,1020.04
2022-10-11T07:16:23.246Z,1020.06
2022-10-11T07:17:23.196Z,1020.07
2022-10-11T07:18:23.203Z,1020.08
2022-10-11T07:19:23.184Z,1020.07
2022-10-11T07:20:23.178Z,1020.08
2022-10-11T07:21:23.180Z,1020.08
2022-10-11T07:22:23.139Z,1020.11
2022-10-11T07:23:23.162Z,1020.15
2022-10-11T07:24:23.116Z,1020.16
2022-10-11T07:25:23.119Z,1020.15
2022-10-11T07:26:23.113Z,1020.14
2022-10-11T07:27:23.097Z,1020.16
2022-10-11T07:28:23.145Z,1020.16
2022-10-11T07:29:23.069Z,1020.13
2022-10-11T07:30:23.067Z,1020.17
2022-10-11T07:31:23.071Z,1020.18
2022-10-11T07:32:23.034Z,1020.17
2022-10-11T07:33:23.064Z,1020.21
2022-10-11T07:34:23.017Z,1020.22
2022-10-11T07:35:23.012Z,1020.22
2022-10-11T07:36:23.074Z,1020.24
2022-10-11T07:37:22.984Z,1020.26
2022-10-11T07:38:22.988Z,1020.27
2022-10-11T07:39:22.981Z,1020.28
2022-10-11T07:40:22.962Z,1020.28
2022-10-11T07:41:22.944Z,1020.29
2022-10-11T07:42:22.927Z,1020.28
2022-10-11T07:43:22.944Z,1020.29
2022-10-11T07:44:22.923Z,1020.31
2022-10-11T07:45:22.905Z,1020.35
2022-10-11T07:46:22.903Z,1020.36
2022-10-11T07:47:23.013Z,1020.36
2022-10-11T07:48:22.919Z,1020.37
2022-10-11T07:49:22.866Z,1020.38
2022-10-11T07:50:22.857Z,1020.39
2022-10-11T07:51:22.845Z,1020.38
2022-10-11T07:52:22.825Z,1020.37
2022-10-11T07:53:22.826Z,1020.36
2022-10-11T07:54:22.807Z,1020.39
2022-10-11T07:55:22.797Z,1020.38
2022-10-11T07:56:22.790Z,1020.38
2022-10-11T07:57:22.820Z,1020.39
2022-10-11T07:58:22.819Z,1020.39
2022-10-11T07:59:22.764Z,1020.40
2022-10-11T08:00:22.829Z,1020.40
2022-10-11T08:01:22.783Z,1020.35
2022-10-11T08:02:22.717Z,1020.36
2022-10-11T08:03:22.721Z,1020.36
2022-10-11T08:04:22.708Z,1020.37
2022-10-11T08:05:22.687Z,1020.39
2022-10-11T08:06:22.671Z,1020.38
2022-10-11T08:07:22.677Z,1020.39
2022-10-11T08:08:22.669Z,1020.41
2022-10-11T08:09:22.650Z,1020.41
2022-10-11T08:10:22.736Z,1020.40
2022-10-11T08:11:22.632Z,1020.41
2022-10-11T08:12:22.609Z,1020.41
2022-10-11T08:13:22.629Z,1020.42
2022-10-11T08:14:22.604Z,1020.42
2022-10-11T08:15:28.601Z,1020.43
2022-10-11T08:16:22.576Z,1020.47
2022-10-11T08:17:22.560Z,1020.48
2022-10-11T08:18:22.573Z,1020.51
2022-10-11T08:19:22.558Z,1020.52
2022-10-11T08:20:22.595Z,1020.52
2022-10-11T08:21:22.522Z,1020.54
2022-10-11T08:22:22.506Z,1020.56
2022-10-11T08:23:22.518Z,1020.56
2022-10-11T08:24:22.485Z,1020.56
2022-10-11T08:25:22.498Z,1020.56
2022-10-11T08:26:22.482Z,1020.58
2022-10-11T08:27:22.458Z,1020.59
2022-10-11T08:28:22.526Z,1020.60
2022-10-11T08:29:22.441Z,1020.61
2022-10-11T08:30:22.536Z,1020.61
2022-10-11T08:31:22.451Z,1020.62
2022-10-11T08:32:22.403Z,1020.63
2022-10-11T08:33:22.412Z,1020.65
2022-10-11T08:34:22.383Z,1020.66
2022-10-11T08:35:22.374Z,1020.67
2022-10-11T08:36:22.359Z,1020.67
2022-10-11T08:37:22.352Z,1020.68
2022-10-11T08:38:22.343Z,1020.69
2022-10-11T08:39:22.336Z,1020.70
2022-10-11T08:40:22.444Z,1020.72
2022-10-11T08:41:22.333Z,1020.72
2022-10-11T08:42:22.294Z,1020.73
2022-10-11T08:43:22.309Z,1020.73
2022-10-11T08:44:22.286Z,1020.72
2022-10-11T08:45:22.265Z,1020.73
2022-10-11T08:46:22.254Z,1020.74
2022-10-11T08:47:22.246Z,1020.74
2022-10-11T08:48:22.243Z,1020.74
2022-10-11T08:49:22.229Z,1020.75
2022-10-11T08:50:22.299Z,1020.76
2022-10-11T08:51:22.215Z,1020.76
2022-10-11T08:52:22.209Z,1020.77
2022-10-11T08:53:22.195Z,1020.79
2022-10-11T08:54:22.179Z,1020.79
2022-10-11T08:55:22.167Z,1020.78
2022-10-11T08:56:22.146Z,1020.78
2022-10-11T08:57:22.147Z,1020.77
2022-10-11T08:58:22.133Z,1020.78
2022-10-11T08:59:22.117Z,1020.80
2022-10-11T09:00:22.101Z,1020.81
2022-10-11T09:01:22.127Z,1020.80
2022-10-11T09:02:22.087Z,1020.80
2022-10-11T09:03:22.085Z,1020.80
2022-10-11T09:04:22.059Z,1020.82
2022-10-11T09:05:22.056Z,1020.81
2022-10-11T09:06:22.039Z,1020.82
2022-10-11T09:07:22.041Z,1020.84
2022-10-11T09:08:22.044Z,1020.86
2022-10-11T09:09:22.013Z,1020.86
2022-10-11T09:10:22.003Z,1020.85
2022-10-11T09:11:21.988Z,1020.85
2022-10-11T09:12:21.971Z,1020.83
2022-10-11T09:13:21.977Z,1020.82
2022-10-11T09:14:21.951Z,1020.85
2022-10-11T09:15:21.948Z,1020.88
2022-10-11T09:16:21.930Z,1020.90
2022-10-11T09:17:21.955Z,1020.90
2022-10-11T09:18:21.923Z,1020.92
2022-10-11T09:19:21.905Z,1020.92
2022-10-11T09:20:21.896Z,1020.90
2022-10-11T09:21:21.895Z,1020.89
2022-10-11T09:22:21.870Z,1020.87
2022-10-11T09:23:21.899Z,1020.87
2022-10-11T09:24:21.845Z,1020.87
2022-10-11T09:25:21.838Z,1020.86
2022-10-11T09:26:21.836Z,1020.85
2022-10-11T09:27:33.237Z,1020.84
2022-10-11T09:28:21.894Z,1020.87
2022-10-11T09:29:21.797Z,1020.88
2022-10-11T09:30:21.787Z,1020.87
2022-10-11T09:31:21.782Z,1020.88
2022-10-11T09:32:21.775Z,1020.90
2022-10-11T09:33:21.768Z,1020.92
2022-10-11T09:34:21.738Z,1020.89
2022-10-11T09:35:21.751Z,1020.92
2022-10-11T09:36:21.760Z,1020.93
2022-10-11T09:37:21.720Z,1020.96
2022-10-11T09:38:21.753Z,1020.96
2022-10-11T09:39:21.690Z,1020.96
2022-10-11T09:40:21.681Z,1020.97
2022-10-11T09:41:21.668Z,1020.95
2022-10-11T09:42:21.666Z,1020.95
2022-10-11T09:43:21.672Z,1020.97
2022-10-11T09:44:21.637Z,1020.95
2022-10-11T09:45:21.634Z,1020.94
2022-10-11T09:46:21.617Z,1020.93
2022-10-11T09:47:21.603Z,1020.92
2022-10-11T09:48:21.627Z,1020.91
2022-10-11T09:49:21.583Z,1020.89
2022-10-11T09:50:21.570Z,1020.87
2022-10-11T09:51:21.565Z,1020.87
2022-10-11T09:52:21.548Z,1020.85
2022-10-11T09:53:21.587Z,1020.85
2022-10-11T09:54:21.526Z,1020.84
2022-10-11T09:55:21.521Z,1020.86
2022-10-11T09:56:21.507Z,1020.86
2022-10-11T09:57:21.497Z,1020.84
2022-10-11T09:58:21.497Z,1020.86
2022-10-11T09:59:21.477Z,1020.87
2022-10-11T10:00:21.505Z,1020.87
2022-10-11T10:01:21.500Z,1020.87
2022-10-11T10:02:21.447Z,1020.90
2022-10-11T10:03:21.451Z,1020.90
2022-10-11T10:04:21.420Z,1020.93
2022-10-11T10:05:21.413Z,1020.92
2022-10-11T10:06:21.396Z,1020.92
2022-10-11T10:07:21.394Z,1020.95
2022-10-11T10:08:21.391Z,1020.96
2022-10-11T10:09:21.373Z,1020.97
2022-10-11T10:10:21.362Z,1020.96
2022-10-11T10:11:21.374Z,1020.98
2022-10-11T10:12:21.342Z,1020.99
2022-10-11T10:13:21.337Z,1020.99
2022-10-11T10:14:21.313Z,1020.99
2022-10-11T10:15:21.303Z,1020.99
2022-10-11T10:16:21.287Z,1020.99
2022-10-11T10:17:21.282Z,1020.99
2022-10-11T10:18:21.278Z,1020.99
2022-10-11T10:19:21.259Z,1021.00
2022-10-11T10:20:21.263Z,1021.00
2022-10-11T10:21:21.240Z,1021.02
2022-10-11T10:22:21.226Z,1021.03
2022-10-11T10:23:21.236Z,1021.05
2022-10-11T10:24:21.208Z,1021.04
2022-10-11T10:25:21.211Z,1021.04
2022-10-11T10:26:21.181Z,1021.06
2022-10-11T10:27:21.190Z,1021.06
2022-10-11T10:28:21.301Z,1021.05
2022-10-11T10:29:21.178Z,1021.05
2022-10-11T10:30:21.139Z,1021.04
2022-10-11T10:31:21.131Z,1021.03
2022-10-11T10:32:21.117Z,1021.02
2022-10-11T10:33:21.119Z,1021.03
2022-10-11T10:34:21.100Z,1021.03
2022-10-11T10:35:21.095Z,1021.03
2022-10-11T10:36:21.073Z,1021.03
2022-10-11T10:37:21.084Z,1021.08
2022-10-11T10:38:26.258Z,1021.10
2022-10-11T10:39:21.054Z,1021.09
2022-10-11T10:40:21.034Z,1021.10
2022-10-11T10:41:21.024Z,1021.12
2022-10-11T10:42:21.151Z,1021.10
2022-10-11T10:43:21.035Z,1021.11
2022-10-11T10:44:20.989Z,1021.12
2022-10-11T10:45:21.943Z,1021.14
2022-10-11T10:46:20.968Z,1021.10
2022-10-11T10:47:20.968Z,1021.14
2022-10-11T10:48:20.975Z,1021.15
2022-10-11T10:49:51.990Z,1021.14
2022-10-11T10:50:20.935Z,1021.15
2022-10-11T10:51:20.920Z,1021.15
2022-10-11T10:52:20.910Z,1021.12
2022-10-11T10:53:20.916Z,1021.13
2022-10-11T10:54:20.883Z,1021.10
2022-10-11T10:55:20.892Z,1021.11
2022-10-11T10:56:20.865Z,1021.11
2022-10-11T10:57:20.862Z,1021.12
2022-10-11T10:58:20.854Z,1021.13
2022-10-11T10:59:20.923Z,1021.12
2022-10-11T11:00:20.820Z,1021.12
2022-10-11T11:01:20.902Z,1021.09
2022-10-11T11:02:39.828Z,1021.10
2022-10-11T11:03:20.809Z,1021.08
2022-10-11T11:04:20.775Z,1021.11
2022-10-11T11:05:20.782Z,1021.12
2022-10-11T11:06:20.759Z,1021.12
2022-10-11T11:07:20.762Z,1021.12
2022-10-11T11:08:20.754Z,1021.15
2022-10-11T11:09:20.734Z,1021.12
2022-10-11T11:10:20.734Z,1021.15
2022-10-11T11:11:20.704Z,1021.17
2022-10-11T11:12:20.695Z,1021.17
2022-10-11T11:13:20.697Z,1021.15
2022-10-11T11:14:20.677Z,1021.14
2022-10-11T11:15:23.782Z,1021.13
2022-10-11T11:16:20.662Z,1021.13
2022-10-11T11:17:20.649Z,1021.13
2022-10-11T11:18:20.645Z,1021.12
2022-10-11T11:19:20.628Z,1021.11
2022-10-11T11:20:20.614Z,1021.13
2022-10-11T11:21:20.595Z,1021.11
2022-10-11T11:22:20.598Z,1021.12
2022-10-11T11:23:20.602Z,1021.09
2022-10-11T11:24:20.617Z,1021.08
2022-10-11T11:25:20.557Z,1021.06
2022-10-11T11:26:20.545Z,1021.06
2022-10-11T11:27:20.529Z,1021.05
2022-10-11T11:28:20.585Z,1021.08
2022-10-11T11:29:20.523Z,1021.07
2022-10-11T11:30:20.516Z,1021.08
2022-10-11T11:31:20.513Z,1021.09
2022-10-11T11:32:20.487Z,1021.09
2022-10-11T11:33:20.484Z,1021.06
2022-10-11T11:34:20.465Z,1021.07
2022-10-11T11:35:20.444Z,1021.07
2022-10-11T11:36:20.448Z,1021.06
2022-10-11T11:37:20.429Z,1021.07
2022-10-11T11:38:20.428Z,1021.06
2022-10-11T11:39:20.424Z,1021.11
2022-10-11T11:40:20.396Z,1021.07
2022-10-11T11:41:20.388Z,1021.06
2022-10-11T11:42:20.374Z,1021.04
2022-10-11T11:43:20.380Z,1021.04
2022-10-11T11:44:25.010Z,1021.05
2022-10-11T11:45:20.360Z,1021.03
2022-10-11T11:46:20.334Z,1021.03
2022-10-11T11:47:20.344Z,1021.01
2022-10-11T11:48:20.318Z,1020.99
2022-10-11T11:49:20.295Z,1021.03
2022-10-11T11:50:20.288Z,1021.01
2022-10-11T11:51:20.282Z,1021.00
2022-10-11T11:52:20.276Z,1020.99
2022-10-11T11:53:20.276Z,1021.01
2022-10-11T11:54:20.253Z,1021.01
2022-10-11T11:55:20.233Z,1021.01
2022-10-11T11:56:20.231Z,1021.03
2022-10-11T11:57:20.234Z,1021.04
2022-10-11T11:58:20.220Z,1021.04
2022-10-11T11:59:20.191Z,1021.04
2022-10-11T12:00:20.196Z,1021.04
2022-10-11T12:01:20.186Z,1021.05
2022-10-11T12:02:20.260Z,1021.03
2022-10-11T12:03:20.145Z,1021.00
2022-10-11T12:04:20.171Z,1021.00
2022-10-11T12:05:20.121Z,1020.99